createdAt,value
2017-11-27T00:01:00.179Z,47.70
2017-11-27T00:03:31.075Z,45.80
2017-11-27T00:06:01.274Z,45.70
2017-11-27T00:08:32.174Z,45.20
2017-11-27T00:11:02.474Z,44.60
2017-11-27T00:13:31.635Z,44.10
2017-11-27T00:16:00.740Z,43.80
2017-11-27T00:18:29.305Z,43.50
2017-11-27T00:20:58.344Z,43.10
2017-11-27T00:23:27.949Z,42.80
2017-11-27T00:25:57.088Z,42.50
2017-11-27T00:28:26.008Z,42.20
2017-11-27T00:30:54.846Z,42.00
2017-11-27T00:33:25.711Z,42.80
2017-11-27T00:35:54.653Z,44.70
2017-11-27T00:38:24.548Z,46.60
2017-11-27T00:40:54.642Z,46.50
2017-11-27T00:43:26.388Z,46.00
2017-11-27T00:45:56.541Z,44.80
2017-11-27T00:48:26.521Z,43.70
2017-11-27T00:50:56.725Z,43.70
2017-11-27T00:53:26.641Z,43.20
2017-11-27T00:55:57.671Z,43.10
2017-11-27T00:58:33.285Z,41.90
2017-11-27T01:01:04.117Z,41.90
2017-11-27T01:03:35.939Z,41.50
2017-11-27T01:06:05.869Z,41.20
2017-11-27T01:08:40.720Z,41.50
2017-11-27T01:11:10.604Z,41.40
2017-11-27T01:13:42.157Z,44.70
2017-11-27T01:16:12.660Z,45.50
2017-11-27T01:18:42.949Z,45.50
2017-11-27T01:21:13.010Z,45.00
2017-11-27T01:23:42.874Z,44.50
2017-11-27T01:26:12.125Z,44.20
2017-11-27T01:28:40.811Z,43.70
2017-11-27T01:31:09.304Z,43.30
2017-11-27T01:33:40.122Z,43.00
2017-11-27T01:36:09.187Z,42.60
2017-11-27T01:38:38.237Z,42.20
2017-11-27T01:41:06.974Z,41.80
2017-11-27T01:43:37.053Z,41.40
2017-11-27T01:46:06.395Z,41.00
2017-11-27T01:48:35.189Z,41.40
2017-11-27T01:51:03.585Z,43.60
2017-11-27T01:53:32.107Z,45.30
2017-11-27T01:56:00.337Z,46.10
2017-11-27T01:58:30.131Z,45.30
2017-11-27T02:01:00.728Z,44.60
2017-11-27T02:03:31.550Z,44.00
2017-11-27T02:06:01.813Z,43.60
2017-11-27T02:08:32.857Z,42.80
2017-11-27T02:11:00.953Z,42.70
2017-11-27T02:13:29.569Z,42.60
2017-11-27T02:15:58.475Z,42.40
2017-11-27T02:18:27.678Z,41.90
2017-11-27T02:20:55.949Z,41.80
2017-11-27T02:23:24.617Z,41.60
2017-11-27T02:25:52.786Z,41.40
2017-11-27T02:28:22.255Z,44.80
2017-11-27T02:30:50.428Z,44.80
2017-11-27T02:33:18.834Z,45.90
2017-11-27T02:35:47.954Z,44.90
2017-11-27T02:38:18.729Z,44.30
2017-11-27T02:40:47.923Z,44.30
2017-11-27T02:43:16.287Z,43.90
2017-11-27T02:45:44.852Z,43.50
2017-11-27T02:48:13.338Z,43.00
2017-11-27T02:50:42.410Z,42.70
2017-11-27T02:53:10.897Z,42.30
2017-11-27T02:55:39.869Z,42.00
2017-11-27T02:58:10.217Z,41.60
2017-11-27T03:00:40.286Z,41.50
2017-11-27T03:03:10.025Z,41.30
2017-11-27T03:05:41.730Z,42.00
2017-11-27T03:08:10.320Z,44.00
2017-11-27T03:10:39.453Z,45.60
2017-11-27T03:13:09.178Z,46.60
2017-11-27T03:15:38.389Z,47.10
2017-11-27T03:18:08.603Z,47.60
2017-11-27T03:20:37.104Z,46.70
2017-11-27T03:23:08.149Z,46.10
2017-11-27T03:25:37.096Z,45.50
2017-11-27T03:28:06.273Z,44.80
2017-11-27T03:30:35.105Z,44.30
2017-11-27T03:33:03.897Z,43.70
2017-11-27T03:35:32.300Z,43.40
2017-11-27T03:38:01.949Z,42.50
2017-11-27T03:40:30.901Z,42.50
2017-11-27T03:43:00.253Z,42.10
2017-11-27T03:45:29.813Z,41.60
2017-11-27T03:47:58.445Z,41.60
2017-11-27T03:50:27.094Z,42.50
2017-11-27T03:52:55.990Z,44.60
2017-11-27T03:55:24.921Z,45.70
2017-11-27T03:57:53.638Z,45.90
2017-11-27T04:00:22.479Z,45.50
2017-11-27T04:02:52.198Z,44.60
2017-11-27T04:05:21.864Z,44.60
2017-11-27T04:07:52.329Z,44.70
2017-11-27T04:10:22.802Z,43.60
2017-11-27T04:12:53.328Z,43.10
2017-11-27T04:15:23.976Z,42.60
2017-11-27T04:17:53.399Z,42.30
2017-11-27T04:20:21.576Z,41.90
2017-11-27T04:22:51.487Z,41.10
2017-11-27T04:25:20.755Z,41.80
2017-11-27T04:27:49.755Z,44.10
2017-11-27T04:30:19.001Z,44.00
2017-11-27T04:32:47.498Z,45.60
2017-11-27T04:35:16.029Z,46.20
2017-11-27T04:37:44.886Z,45.40
2017-11-27T04:40:13.481Z,44.60
2017-11-27T04:42:43.386Z,44.10
2017-11-27T04:45:12.009Z,43.70
2017-11-27T04:47:40.998Z,43.10
2017-11-27T04:50:09.809Z,43.40
2017-11-27T04:52:38.247Z,42.60
2017-11-27T04:55:06.925Z,42.40
2017-11-27T04:57:35.055Z,42.00
2017-11-27T05:00:03.447Z,41.80
2017-11-27T05:02:32.358Z,41.60
2017-11-27T05:05:00.761Z,41.40
2017-11-27T05:07:29.305Z,43.30
2017-11-27T05:09:57.538Z,44.80
2017-11-27T05:12:25.890Z,46.00
2017-11-27T05:14:54.826Z,45.40
2017-11-27T05:17:23.916Z,44.30
2017-11-27T05:19:54.429Z,43.80
2017-11-27T05:22:27.524Z,43.80
2017-11-27T05:24:56.618Z,43.30
2017-11-27T05:27:26.709Z,42.90
2017-11-27T05:29:55.645Z,42.50
2017-11-27T05:32:25.856Z,42.00
2017-11-27T05:34:54.377Z,41.60
2017-11-27T05:37:22.794Z,41.30
2017-11-27T05:39:52.809Z,41.10
2017-11-27T05:42:23.326Z,40.90
2017-11-27T05:44:54.859Z,44.00
2017-11-27T05:47:25.509Z,44.00
2017-11-27T05:49:54.530Z,45.10
2017-11-27T05:52:23.893Z,45.10
2017-11-27T05:54:53.229Z,44.80
2017-11-27T05:57:23.753Z,44.30
2017-11-27T05:59:52.581Z,44.50
2017-11-27T06:02:21.252Z,43.40
2017-11-27T06:04:53.414Z,43.10
2017-11-27T06:07:22.183Z,42.70
2017-11-27T06:09:53.069Z,42.10
2017-11-27T06:12:22.356Z,41.80
2017-11-27T06:14:51.858Z,41.50
2017-11-27T06:17:20.921Z,41.20
2017-11-27T06:19:50.028Z,40.80
2017-11-27T06:22:19.215Z,42.00
2017-11-27T06:24:48.333Z,45.70
2017-11-27T06:27:16.379Z,45.70
2017-11-27T06:29:44.491Z,46.50
2017-11-27T06:32:13.452Z,47.10
2017-11-27T06:34:42.549Z,47.50
2017-11-27T06:37:11.860Z,45.70
2017-11-27T06:39:40.242Z,45.80
2017-11-27T06:42:09.279Z,44.90
2017-11-27T06:44:39.009Z,44.50
2017-11-27T06:47:10.388Z,43.90
2017-11-27T06:49:40.990Z,43.30
2017-11-27T06:52:11.887Z,42.90
2017-11-27T06:54:43.382Z,42.60
2017-11-27T06:57:14.193Z,42.40
2017-11-27T06:59:45.088Z,42.10
2017-11-27T07:02:15.480Z,41.90
2017-11-27T07:04:45.886Z,41.70
2017-11-27T07:07:16.479Z,42.40
2017-11-27T07:09:46.778Z,44.10
2017-11-27T07:12:18.188Z,46.00
2017-11-27T07:14:49.489Z,46.00
2017-11-27T07:17:20.569Z,44.60
2017-11-27T07:19:51.496Z,44.60
2017-11-27T07:22:22.025Z,44.10
2017-11-27T07:24:52.566Z,43.60
2017-11-27T07:27:21.983Z,43.50
2017-11-27T07:29:50.398Z,44.90
2017-11-27T07:32:19.564Z,44.50
2017-11-27T07:34:48.174Z,43.90
2017-11-27T07:37:21.640Z,43.40
2017-11-27T07:39:51.440Z,43.00
2017-11-27T07:42:21.840Z,42.50
2017-11-27T07:44:51.244Z,42.30
2017-11-27T07:47:20.139Z,42.10
2017-11-27T07:49:49.139Z,42.00
2017-11-27T07:52:18.738Z,41.80
2017-11-27T07:54:47.738Z,41.60
2017-11-27T07:57:17.538Z,41.20
2017-11-27T07:59:46.385Z,41.10
2017-11-27T08:02:15.593Z,42.70
2017-11-27T08:04:46.189Z,44.70
2017-11-27T08:07:16.383Z,45.90
2017-11-27T08:09:47.489Z,45.30
2017-11-27T08:12:19.174Z,44.70
2017-11-27T08:14:48.215Z,44.20
2017-11-27T08:17:16.669Z,43.70
2017-11-27T08:19:45.607Z,43.20
2017-11-27T08:22:13.890Z,42.70
2017-11-27T08:24:42.892Z,42.30
2017-11-27T08:27:11.358Z,41.90
2017-11-27T08:29:39.481Z,42.20
2017-11-27T08:32:08.210Z,41.30
2017-11-27T08:34:37.567Z,41.10
2017-11-27T08:42:22.505Z,44.00
2017-11-27T08:44:53.099Z,45.30
2017-11-27T08:47:22.498Z,45.40
2017-11-27T08:49:52.399Z,44.90
2017-11-27T08:52:21.462Z,44.50
2017-11-27T08:54:52.007Z,44.10
2017-11-27T08:57:21.510Z,43.60
2017-11-27T08:59:52.315Z,43.20
2017-11-27T09:02:21.908Z,42.70
2017-11-27T09:04:51.726Z,42.00
2017-11-27T09:07:19.987Z,42.00
2017-11-27T09:09:48.600Z,41.50
2017-11-27T09:12:19.280Z,41.30
2017-11-27T09:14:50.593Z,40.90
2017-11-27T09:20:08.702Z,46.00
2017-11-27T09:22:42.841Z,45.20
2017-11-27T09:25:16.361Z,45.60
2017-11-27T09:27:51.655Z,44.90
2017-11-27T09:30:27.830Z,44.50
2017-11-27T09:33:02.930Z,44.10
2017-11-27T09:35:31.823Z,43.70
2017-11-27T09:38:01.509Z,43.30
2017-11-27T09:40:31.420Z,42.60
2017-11-27T09:43:02.058Z,42.20
2017-11-27T09:45:32.723Z,42.20
2017-11-27T09:48:04.219Z,42.00
2017-11-27T09:50:35.618Z,41.20
2017-11-27T09:53:05.019Z,41.20
2017-11-27T09:55:35.475Z,42.20
2017-11-27T09:58:07.782Z,44.30
2017-11-27T10:00:39.873Z,45.40
2017-11-27T10:03:11.073Z,46.20
2017-11-27T10:05:41.464Z,46.80
2017-11-27T10:08:11.748Z,46.80
2017-11-27T10:10:43.051Z,46.80
2017-11-27T10:13:14.637Z,46.30
2017-11-27T10:15:45.338Z,45.60
2017-11-27T10:18:16.617Z,45.10
2017-11-27T10:20:49.479Z,44.60
2017-11-27T10:23:20.450Z,44.00
2017-11-27T10:25:52.725Z,43.40
2017-11-27T10:28:28.488Z,42.60
2017-11-27T10:30:59.223Z,42.60
2017-11-27T10:33:29.772Z,42.30
2017-11-27T10:36:04.679Z,42.00
2017-11-27T10:38:42.537Z,41.60
2017-11-27T10:41:13.737Z,43.30
2017-11-27T10:43:47.219Z,45.20
2017-11-27T10:49:01.366Z,46.10
2017-11-27T10:51:32.438Z,45.70
2017-11-27T10:54:07.027Z,45.20
2017-11-27T10:56:38.166Z,44.70
2017-11-27T10:59:11.606Z,44.40
2017-11-27T11:01:46.429Z,43.90
2017-11-27T11:04:17.578Z,43.30
2017-11-27T11:06:51.086Z,42.90
2017-11-27T11:09:24.765Z,42.50
2017-11-27T11:12:00.964Z,42.20
2017-11-27T11:14:33.454Z,41.90
2017-11-27T11:17:04.611Z,43.70
2017-11-27T11:19:35.498Z,43.70
2017-11-27T11:22:07.657Z,45.10
2017-11-27T11:24:40.856Z,46.30
2017-11-27T11:27:12.439Z,45.30
2017-11-27T11:29:43.514Z,45.60
2017-11-27T11:32:14.753Z,44.90
2017-11-27T11:34:46.011Z,44.50
2017-11-27T11:42:38.852Z,43.10
2017-11-27T11:45:16.853Z,42.60
2017-11-27T11:47:47.437Z,42.00
2017-11-27T11:50:17.686Z,42.00
2017-11-27T11:52:48.389Z,41.60
2017-11-27T11:55:17.786Z,41.60
2017-11-27T11:57:47.585Z,43.90
2017-11-27T12:00:15.993Z,45.40
2017-11-27T12:02:45.173Z,46.20
2017-11-27T12:05:17.900Z,45.90
2017-11-27T12:07:46.416Z,45.40
2017-11-27T12:10:16.572Z,45.00
2017-11-27T12:12:46.503Z,44.50
2017-11-27T12:15:16.526Z,44.10
2017-11-27T12:17:46.125Z,43.50
2017-11-27T12:20:16.828Z,43.10
2017-11-27T12:22:47.025Z,42.70
2017-11-27T12:25:17.732Z,42.40
2017-11-27T12:27:48.824Z,42.10
2017-11-27T12:30:19.224Z,41.90
2017-11-27T12:32:53.623Z,41.50
2017-11-27T12:35:26.523Z,45.10
2017-11-27T12:37:58.793Z,45.00
2017-11-27T12:40:30.935Z,46.10
2017-11-27T12:43:03.466Z,45.70
2017-11-27T12:45:43.365Z,45.30
2017-11-27T12:48:16.629Z,44.80
2017-11-27T12:50:55.128Z,44.40
2017-11-27T12:53:27.022Z,43.90
2017-11-27T12:55:57.925Z,44.00
2017-11-27T12:58:29.619Z,42.80
2017-11-27T13:09:05.423Z,41.50
2017-11-27T13:14:25.498Z,45.20
2017-11-27T13:22:30.231Z,46.90
2017-11-27T13:25:02.939Z,47.40
2017-11-27T13:27:38.117Z,46.50
2017-11-27T13:30:19.304Z,46.20
2017-11-27T13:38:26.696Z,44.80
2017-11-27T13:41:08.837Z,43.80
2017-11-27T13:43:50.265Z,43.10
2017-11-27T13:46:21.068Z,43.10
2017-11-27T13:48:50.897Z,42.90
2017-11-27T13:51:29.246Z,42.50
2017-11-27T13:54:00.209Z,42.30
2017-11-27T13:56:33.143Z,42.30
2017-11-27T13:59:06.624Z,44.50
2017-11-27T14:01:40.881Z,46.00
2017-11-27T14:04:13.223Z,46.50
2017-11-27T14:06:52.238Z,45.40
2017-11-27T14:09:23.757Z,45.30
2017-11-27T14:11:52.717Z,44.60
2017-11-27T14:14:23.111Z,44.10
2017-11-27T14:16:52.757Z,43.70
2017-11-27T14:19:23.056Z,43.10
2017-11-27T14:21:52.421Z,42.90
2017-11-27T14:24:20.943Z,42.60
2017-11-27T14:26:51.184Z,42.20
2017-11-27T14:29:21.528Z,42.00
2017-11-27T14:31:52.556Z,41.80
2017-11-27T14:34:21.658Z,41.70
2017-11-27T14:36:51.165Z,43.90
2017-11-27T14:39:22.271Z,45.60
2017-11-27T14:41:52.396Z,46.20
2017-11-27T14:44:22.889Z,45.70
2017-11-27T14:46:54.388Z,44.30
2017-11-27T14:49:26.198Z,44.20
2017-11-27T14:51:55.968Z,43.30
2017-11-27T14:54:25.668Z,43.20
2017-11-27T14:56:55.676Z,43.00
2017-11-27T14:59:25.670Z,42.60
2017-11-27T15:01:55.269Z,42.40
2017-11-27T15:04:26.272Z,42.20
2017-11-27T15:06:56.067Z,41.90
2017-11-27T15:09:30.857Z,41.50
2017-11-27T15:12:07.585Z,41.20
2017-11-27T15:14:39.274Z,43.50
2017-11-27T15:17:13.116Z,45.20
2017-11-27T15:19:42.768Z,45.90
2017-11-27T15:22:14.537Z,45.40
2017-11-27T15:24:44.970Z,44.70
2017-11-27T15:27:16.368Z,43.60
2017-11-27T15:29:47.268Z,43.50
2017-11-27T15:32:18.643Z,42.70
2017-11-27T15:34:55.241Z,42.70
2017-11-27T15:37:26.641Z,42.30
2017-11-27T15:40:01.341Z,42.10
2017-11-27T15:42:31.519Z,41.90
2017-11-27T15:45:02.217Z,41.70
2017-11-27T15:47:33.719Z,41.40
2017-11-27T15:50:05.620Z,41.30
2017-11-27T15:52:37.872Z,45.10
2017-11-27T15:57:53.174Z,46.00
2017-11-27T16:00:26.371Z,45.00
2017-11-27T16:02:59.075Z,44.60
2017-11-27T16:05:29.167Z,44.10
2017-11-27T16:07:59.665Z,43.60
2017-11-27T16:13:12.364Z,42.40
2017-11-27T16:15:43.169Z,42.30
2017-11-27T16:18:14.562Z,42.10
2017-11-27T16:20:44.873Z,41.80
2017-11-27T16:23:17.081Z,41.40
2017-11-27T16:25:49.778Z,41.30
2017-11-27T16:28:20.781Z,41.30
2017-11-27T16:33:29.528Z,45.20
2017-11-27T16:36:03.690Z,46.20
2017-11-27T16:38:38.290Z,46.90
2017-11-27T16:43:51.772Z,46.70
2017-11-27T16:46:26.076Z,46.10
2017-11-27T16:51:34.973Z,44.70
2017-11-27T16:54:09.087Z,44.20
2017-11-27T16:56:42.997Z,44.00
2017-11-27T17:01:53.492Z,42.90
2017-11-27T17:04:26.781Z,42.60
2017-11-27T17:06:59.974Z,42.10
2017-11-27T17:14:48.957Z,43.30
2017-11-27T17:17:24.059Z,45.20
2017-11-27T17:19:55.454Z,46.40
2017-11-27T17:22:25.755Z,45.90
2017-11-27T17:24:55.967Z,45.10
2017-11-27T17:27:30.058Z,44.70
2017-11-27T17:30:04.757Z,44.20
2017-11-27T17:32:37.366Z,43.60
2017-11-27T17:35:08.564Z,43.10
2017-11-27T17:37:39.957Z,42.60
2017-11-27T17:40:11.965Z,42.10
2017-11-27T17:42:45.455Z,42.10
2017-11-27T17:45:15.674Z,41.80
2017-11-27T17:47:46.355Z,41.50
2017-11-27T17:50:16.953Z,41.30
2017-11-27T17:52:50.353Z,44.80
2017-11-27T17:58:00.452Z,45.90
2017-11-27T18:00:34.153Z,45.50
2017-11-27T18:03:05.051Z,44.90
2017-11-27T18:05:41.984Z,43.70
2017-11-27T18:08:15.588Z,43.70
2017-11-27T18:10:47.782Z,43.10
2017-11-27T18:15:59.570Z,42.30
2017-11-27T18:18:33.398Z,42.10
2017-11-27T18:23:46.004Z,41.50
2017-11-27T18:26:17.505Z,41.00
2017-11-27T18:28:54.903Z,41.00
2017-11-27T18:31:26.201Z,43.00
2017-11-27T18:33:59.493Z,44.70
2017-11-27T18:36:31.184Z,45.70
2017-11-27T18:39:01.784Z,45.50
2017-11-27T18:41:33.382Z,44.90
2017-11-27T18:44:03.882Z,44.30
2017-11-27T18:46:34.682Z,43.60
2017-11-27T18:49:08.481Z,43.10
2017-11-27T18:51:39.790Z,42.70
2017-11-27T18:54:14.908Z,42.40
2017-11-27T18:56:50.027Z,42.10
2017-11-27T18:59:20.208Z,41.80
2017-11-27T19:01:58.371Z,41.60
2017-11-27T19:04:28.816Z,41.40
2017-11-27T19:07:00.843Z,41.20
2017-11-27T19:12:17.377Z,45.10
2017-11-27T19:14:56.881Z,45.80
2017-11-27T19:17:36.178Z,45.40
2017-11-27T19:20:09.367Z,44.90
2017-11-27T19:22:44.265Z,44.30
2017-11-27T19:25:13.953Z,43.60
2017-11-27T19:27:44.853Z,43.10
2017-11-27T19:30:29.452Z,42.70
2017-11-27T19:33:00.445Z,42.30
2017-11-27T19:35:31.635Z,42.00
2017-11-27T19:38:03.433Z,41.70
2017-11-27T19:40:36.224Z,41.20
2017-11-27T19:43:17.735Z,41.00
2017-11-27T19:48:35.846Z,43.30
2017-11-27T19:53:52.741Z,46.20
2017-11-27T19:56:28.041Z,46.90
2017-11-27T19:59:05.844Z,47.30
2017-11-27T20:01:40.540Z,46.60
2017-11-27T20:04:21.948Z,45.80
2017-11-27T20:07:01.058Z,45.20
2017-11-27T20:09:37.941Z,44.60
2017-11-27T20:12:12.651Z,44.00
2017-11-27T20:14:44.846Z,43.50
2017-11-27T20:17:14.687Z,43.10
2017-11-27T20:19:45.680Z,42.80
2017-11-27T20:22:20.482Z,42.50
2017-11-27T20:27:43.265Z,41.90
2017-11-27T20:33:04.370Z,44.00
2017-11-27T20:38:20.522Z,46.80
2017-11-27T20:46:23.474Z,44.50
2017-11-27T20:48:55.473Z,43.80
2017-11-27T20:51:28.572Z,43.40
2017-11-27T20:54:01.173Z,43.00
2017-11-27T20:56:33.238Z,42.60
2017-11-27T20:59:03.913Z,42.30
2017-11-27T21:01:35.679Z,42.10
2017-11-27T21:04:05.729Z,41.70
2017-11-27T21:06:37.931Z,41.40
2017-11-27T21:09:08.079Z,42.30
2017-11-27T21:11:45.771Z,44.40
2017-11-27T21:14:17.669Z,45.80
2017-11-27T21:16:51.375Z,45.80
2017-11-27T21:19:21.899Z,45.50
2017-11-27T21:21:53.592Z,44.90
2017-11-27T21:24:24.993Z,44.60
2017-11-27T21:26:55.290Z,43.90
2017-11-27T21:29:30.684Z,43.30
2017-11-27T21:32:00.691Z,42.90
2017-11-27T21:34:39.091Z,42.50
2017-11-27T21:37:13.390Z,42.20
2017-11-27T21:39:43.290Z,41.80
2017-11-27T21:42:13.936Z,41.70
2017-11-27T21:44:44.328Z,41.50
2017-11-27T21:47:14.127Z,42.50
2017-11-27T21:49:48.487Z,44.30
2017-11-27T21:52:25.992Z,45.70
2017-11-27T21:54:56.392Z,45.50
2017-11-27T22:00:01.000Z,44.80
2017-11-27T22:02:32.626Z,43.50
2017-11-27T22:05:03.883Z,43.10
2017-11-27T22:07:35.051Z,43.10
2017-11-27T22:10:05.295Z,42.70
2017-11-27T22:12:37.684Z,41.90
2017-11-27T22:15:09.253Z,41.80
2017-11-27T22:17:40.761Z,41.70
2017-11-27T22:20:15.177Z,41.20
2017-11-27T22:22:47.988Z,41.20
2017-11-27T22:25:20.675Z,42.20
2017-11-27T22:27:52.580Z,44.30
2017-11-27T22:30:28.712Z,45.70
2017-11-27T22:32:59.709Z,45.50
2017-11-27T22:35:30.819Z,45.10
2017-11-27T22:38:02.312Z,44.70
2017-11-27T22:40:33.489Z,44.20
2017-11-27T22:43:03.990Z,43.70
2017-11-27T22:45:37.185Z,43.10
2017-11-27T22:48:08.589Z,42.80
2017-11-27T22:50:39.110Z,42.40
2017-11-27T22:53:10.407Z,41.90
2017-11-27T22:55:39.816Z,41.60
2017-11-27T22:58:16.606Z,41.30
2017-11-27T23:00:48.216Z,41.20
2017-11-27T23:03:21.813Z,42.30
2017-11-27T23:05:53.911Z,45.60
2017-11-27T23:08:25.005Z,45.60
2017-11-27T23:10:56.309Z,46.20
2017-11-27T23:13:26.436Z,47.00
2017-11-27T23:15:56.432Z,47.30
2017-11-27T23:18:26.455Z,46.80
2017-11-27T23:21:06.226Z,46.20
2017-11-27T23:23:44.321Z,45.30
2017-11-27T23:26:23.229Z,44.60
2017-11-27T23:29:01.723Z,44.20
2017-11-27T23:31:31.920Z,43.50
2017-11-27T23:34:02.631Z,43.10
2017-11-27T23:36:34.919Z,42.50
2017-11-27T23:39:07.121Z,42.50
2017-11-27T23:41:38.723Z,42.30
2017-11-27T23:44:10.189Z,42.00
2017-11-27T23:46:40.989Z,41.80
2017-11-27T23:49:12.016Z,43.80
2017-11-27T23:51:42.399Z,45.40
2017-11-27T23:54:15.120Z,46.40
2017-11-27T23:56:44.458Z,45.70
2017-11-27T23:59:15.202Z,45.40
